sensor_id;sensor_type;location;lat;lon;timestamp;P1;durP1;ratioP1;P2;durP2;ratioP2
51479;SDS011;37556;44.570;18.612;2024-02-21T08:23:01;8.80;;;5.65;;
51479;SDS011;37556;44.570;18.612;2024-02-21T08:25:27;21.63;;;7.63;;
51479;SDS011;37556;44.570;18.612;2024-02-21T08:27:57;22.63;;;12.27;;
51479;SDS011;37556;44.570;18.612;2024-02-21T08:30:26;13.32;;;8.80;;
51479;SDS011;37556;44.570;18.612;2024-02-21T08:32:52;6.88;;;5.22;;
51479;SDS011;37556;44.570;18.612;2024-02-21T08:35:21;71.13;;;21.58;;
51479;SDS011;37556;44.570;18.612;2024-02-21T08:37:48;30.65;;;16.35;;
51479;SDS011;37556;44.570;18.612;2024-02-21T08:42:59;10.23;;;7.22;;
51479;SDS011;37556;44.570;18.612;2024-02-21T08:45:25;6.63;;;3.38;;
51479;SDS011;37556;44.570;18.612;2024-02-21T08:50:18;20.35;;;5.97;;
51479;SDS011;37556;44.570;18.612;2024-02-21T08:52:55;9.38;;;4.65;;
51479;SDS011;37556;44.570;18.612;2024-02-21T08:55:21;11.77;;;3.95;;
51479;SDS011;37556;44.570;18.612;2024-02-21T08:57:47;4.28;;;3.83;;
51479;SDS011;37556;44.570;18.612;2024-02-21T09:00:13;4.75;;;4.07;;
51479;SDS011;37556;44.570;18.612;2024-02-21T09:02:40;12.48;;;3.30;;
51479;SDS011;37556;44.570;18.612;2024-02-21T09:11:16;6.35;;;3.88;;
51479;SDS011;37556;44.570;18.612;2024-02-21T09:16:46;33.90;;;13.63;;
51479;SDS011;37556;44.570;18.612;2024-02-21T09:19:15;19.45;;;6.68;;
51479;SDS011;37556;44.570;18.612;2024-02-21T09:21:44;6.40;;;3.63;;
51479;SDS011;37556;44.570;18.612;2024-02-21T09:27:17;3.35;;;3.15;;
51479;SDS011;37556;44.570;18.612;2024-02-21T09:29:43;3.92;;;3.58;;
51479;SDS011;37556;44.570;18.612;2024-02-21T09:34:38;9.00;;;4.15;;
51479;SDS011;37556;44.570;18.612;2024-02-21T09:37:08;4.00;;;2.95;;
51479;SDS011;37556;44.570;18.612;2024-02-21T09:42:36;5.90;;;5.38;;
51479;SDS011;37556;44.570;18.612;2024-02-21T09:45:15;9.45;;;5.30;;
51479;SDS011;37556;44.570;18.612;2024-02-21T09:50:28;17.20;;;13.93;;
51479;SDS011;37556;44.570;18.612;2024-02-21T09:55:23;6.30;;;5.28;;
51479;SDS011;37556;44.570;18.612;2024-02-21T10:03:59;4.93;;;3.45;;
51479;SDS011;37556;44.570;18.612;2024-02-21T10:06:27;4.88;;;4.47;;
51479;SDS011;37556;44.570;18.612;2024-02-21T10:08:57;2.38;;;1.88;;
51479;SDS011;37556;44.570;18.612;2024-02-21T10:11:24;2.92;;;2.72;;
51479;SDS011;37556;44.570;18.612;2024-02-21T10:20:08;2.83;;;2.72;;
51479;SDS011;37556;44.570;18.612;2024-02-21T10:22:35;2.30;;;2.20;;
51479;SDS011;37556;44.570;18.612;2024-02-21T10:27:34;3.20;;;2.45;;
51479;SDS011;37556;44.570;18.612;2024-02-21T10:30:00;0.65;;;0.65;;
51479;SDS011;37556;44.570;18.612;2024-02-21T10:32:30;2.05;;;1.95;;
51479;SDS011;37556;44.570;18.612;2024-02-21T10:35:02;1.23;;;1.15;;
51479;SDS011;37556;44.570;18.612;2024-02-21T10:37:38;1.35;;;1.35;;
51479;SDS011;37556;44.570;18.612;2024-02-21T10:40:05;1.15;;;1.13;;
51479;SDS011;37556;44.570;18.612;2024-02-21T10:45:31;2.88;;;1.48;;
51479;SDS011;37556;44.570;18.612;2024-02-21T10:48:29;0.52;;;0.52;;
51479;SDS011;37556;44.570;18.612;2024-02-21T10:53:44;0.50;;;0.50;;
51479;SDS011;37556;44.570;18.612;2024-02-21T10:56:16;0.82;;;0.82;;
51479;SDS011;37556;44.570;18.612;2024-02-21T11:01:48;1.25;;;0.88;;
51479;SDS011;37556;44.570;18.612;2024-02-21T11:06:49;0.22;;;0.22;;
51479;SDS011;37556;44.570;18.612;2024-02-21T11:09:18;0.30;;;0.30;;
51479;SDS011;37556;44.570;18.612;2024-02-21T11:11:44;1.27;;;1.10;;
51479;SDS011;37556;44.570;18.612;2024-02-21T11:14:11;0.30;;;0.30;;
51479;SDS011;37556;44.570;18.612;2024-02-21T11:19:50;1.67;;;1.05;;
51479;SDS011;37556;44.570;18.612;2024-02-21T11:22:20;0.98;;;0.98;;
51479;SDS011;37556;44.570;18.612;2024-02-21T11:24:49;0.93;;;0.93;;
51479;SDS011;37556;44.570;18.612;2024-02-21T11:27:18;1.25;;;0.63;;
51479;SDS011;37556;44.570;18.612;2024-02-21T11:29:46;0.45;;;0.45;;
51479;SDS011;37556;44.570;18.612;2024-02-21T11:32:15;1.30;;;0.65;;
51479;SDS011;37556;44.570;18.612;2024-02-21T11:34:52;0.28;;;0.22;;
51479;SDS011;37556;44.570;18.612;2024-02-21T11:37:18;0.50;;;0.50;;
51479;SDS011;37556;44.570;18.612;2024-02-21T11:42:10;0.50;;;0.50;;
51479;SDS011;37556;44.570;18.612;2024-02-21T11:44:37;1.60;;;1.08;;
51479;SDS011;37556;44.570;18.612;2024-02-21T11:47:05;5.75;;;1.58;;
51479;SDS011;37556;44.570;18.612;2024-02-21T11:49:35;0.10;;;0.10;;
51479;SDS011;37556;44.570;18.612;2024-02-21T11:52:02;0.75;;;0.75;;
51479;SDS011;37556;44.570;18.612;2024-02-21T11:54:32;0.30;;;0.30;;
51479;SDS011;37556;44.570;18.612;2024-02-21T11:57:01;0.35;;;0.35;;
51479;SDS011;37556;44.570;18.612;2024-02-21T11:59:32;0.47;;;0.47;;
51479;SDS011;37556;44.570;18.612;2024-02-21T12:01:59;3.05;;;1.33;;
51479;SDS011;37556;44.570;18.612;2024-02-21T12:04:26;1.30;;;1.20;;
51479;SDS011;37556;44.570;18.612;2024-02-21T12:06:55;0.20;;;0.20;;
51479;SDS011;37556;44.570;18.612;2024-02-21T12:15:28;0.90;;;0.60;;
51479;SDS011;37556;44.570;18.612;2024-02-21T12:17:54;2.45;;;0.65;;
51479;SDS011;37556;44.570;18.612;2024-02-21T12:20:20;1.30;;;0.85;;
51479;SDS011;37556;44.570;18.612;2024-02-21T12:25:17;2.28;;;2.10;;
51479;SDS011;37556;44.570;18.612;2024-02-21T12:27:47;1.25;;;0.88;;
51479;SDS011;37556;44.570;18.612;2024-02-21T12:30:14;2.17;;;0.90;;
51479;SDS011;37556;44.570;18.612;2024-02-21T12:32:40;1.58;;;0.85;;
51479;SDS011;37556;44.570;18.612;2024-02-21T12:37:32;0.43;;;0.22;;
51479;SDS011;37556;44.570;18.612;2024-02-21T12:39:59;0.45;;;0.45;;
51479;SDS011;37556;44.570;18.612;2024-02-21T12:44:52;3.13;;;1.52;;
51479;SDS011;37556;44.570;18.612;2024-02-21T12:47:18;2.45;;;1.98;;
51479;SDS011;37556;44.570;18.612;2024-02-21T12:49:48;0.57;;;0.52;;
51479;SDS011;37556;44.570;18.612;2024-02-21T12:54:41;0.77;;;0.77;;
51479;SDS011;37556;44.570;18.612;2024-02-21T12:57:10;0.00;;;0.00;;
51479;SDS011;37556;44.570;18.612;2024-02-21T12:59:36;0.28;;;0.28;;
51479;SDS011;37556;44.570;18.612;2024-02-21T13:04:28;0.73;;;0.68;;
51479;SDS011;37556;44.570;18.612;2024-02-21T13:06:54;2.13;;;2.03;;
51479;SDS011;37556;44.570;18.612;2024-02-21T13:09:21;1.10;;;0.88;;
51479;SDS011;37556;44.570;18.612;2024-02-21T13:11:47;1.05;;;0.17;;
51479;SDS011;37556;44.570;18.612;2024-02-21T13:14:13;0.32;;;0.32;;
51479;SDS011;37556;44.570;18.612;2024-02-21T13:16:39;0.70;;;0.70;;
51479;SDS011;37556;44.570;18.612;2024-02-21T13:19:06;1.02;;;1.02;;
51479;SDS011;37556;44.570;18.612;2024-02-21T13:21:33;0.75;;;0.75;;
51479;SDS011;37556;44.570;18.612;2024-02-21T13:23:59;3.63;;;0.93;;
51479;SDS011;37556;44.570;18.612;2024-02-21T13:26:25;1.42;;;1.33;;
51479;SDS011;37556;44.570;18.612;2024-02-21T13:28:52;1.13;;;1.08;;
51479;SDS011;37556;44.570;18.612;2024-02-21T13:31:18;1.48;;;1.38;;
51479;SDS011;37556;44.570;18.612;2024-02-21T13:36:10;0.80;;;0.80;;
51479;SDS011;37556;44.570;18.612;2024-02-21T13:38:36;9.10;;;1.25;;
51479;SDS011;37556;44.570;18.612;2024-02-21T13:41:04;1.85;;;0.88;;
51479;SDS011;37556;44.570;18.612;2024-02-21T13:43:31;0.28;;;0.28;;
51479;SDS011;37556;44.570;18.612;2024-02-21T13:45:58;1.58;;;1.17;;
51479;SDS011;37556;44.570;18.612;2024-02-21T13:48:24;0.85;;;0.85;;
51479;SDS011;37556;44.570;18.612;2024-02-21T13:50:51;3.63;;;1.20;;
51479;SDS011;37556;44.570;18.612;2024-02-21T13:53:18;1.50;;;0.80;;
51479;SDS011;37556;44.570;18.612;2024-02-21T13:55:44;0.93;;;0.93;;
51479;SDS011;37556;44.570;18.612;2024-02-21T13:58:10;1.25;;;1.25;;
51479;SDS011;37556;44.570;18.612;2024-02-21T14:03:03;0.73;;;0.73;;
51479;SDS011;37556;44.570;18.612;2024-02-21T14:05:29;2.33;;;1.98;;
51479;SDS011;37556;44.570;18.612;2024-02-21T14:10:21;1.67;;;1.17;;
51479;SDS011;37556;44.570;18.612;2024-02-21T14:12:47;0.30;;;0.30;;
51479;SDS011;37556;44.570;18.612;2024-02-21T14:15:14;1.27;;;1.27;;
51479;SDS011;37556;44.570;18.612;2024-02-21T14:17:41;0.60;;;0.60;;
51479;SDS011;37556;44.570;18.612;2024-02-21T14:22:33;4.10;;;1.60;;
51479;SDS011;37556;44.570;18.612;2024-02-21T14:25:02;1.33;;;1.33;;
51479;SDS011;37556;44.570;18.612;2024-02-21T14:27:30;0.45;;;0.45;;
51479;SDS011;37556;44.570;18.612;2024-02-21T14:29:57;0.63;;;0.63;;
51479;SDS011;37556;44.570;18.612;2024-02-21T14:34:49;0.43;;;0.43;;
51479;SDS011;37556;44.570;18.612;2024-02-21T14:39:41;0.13;;;0.13;;
51479;SDS011;37556;44.570;18.612;2024-02-21T14:42:08;3.15;;;2.42;;
51479;SDS011;37556;44.570;18.612;2024-02-21T14:44:37;2.15;;;2.00;;
51479;SDS011;37556;44.570;18.612;2024-02-21T14:49:29;1.48;;;1.38;;
51479;SDS011;37556;44.570;18.612;2024-02-21T14:51:55;2.55;;;1.35;;
51479;SDS011;37556;44.570;18.612;2024-02-21T14:56:48;6.32;;;2.38;;
51479;SDS011;37556;44.570;18.612;2024-02-21T14:59:15;5.85;;;3.67;;
51479;SDS011;37556;44.570;18.612;2024-02-21T15:01:44;7.72;;;3.97;;
51479;SDS011;37556;44.570;18.612;2024-02-21T15:04:10;4.93;;;2.58;;
51479;SDS011;37556;44.570;18.612;2024-02-21T15:06:36;0.70;;;0.70;;
51479;SDS011;37556;44.570;18.612;2024-02-21T15:09:04;0.90;;;0.90;;
51479;SDS011;37556;44.570;18.612;2024-02-21T15:11:32;0.90;;;0.90;;
51479;SDS011;37556;44.570;18.612;2024-02-21T15:13:58;1.02;;;1.02;;
51479;SDS011;37556;44.570;18.612;2024-02-21T15:16:24;2.42;;;1.40;;
51479;SDS011;37556;44.570;18.612;2024-02-21T15:18:50;1.33;;;1.27;;
51479;SDS011;37556;44.570;18.612;2024-02-21T15:21:16;0.98;;;0.98;;
51479;SDS011;37556;44.570;18.612;2024-02-21T15:23:43;0.25;;;0.25;;
51479;SDS011;37556;44.570;18.612;2024-02-21T15:26:10;1.67;;;1.58;;
51479;SDS011;37556;44.570;18.612;2024-02-21T15:28:36;0.38;;;0.38;;
51479;SDS011;37556;44.570;18.612;2024-02-21T15:31:02;0.55;;;0.55;;
51479;SDS011;37556;44.570;18.612;2024-02-21T15:35:54;0.73;;;0.73;;
51479;SDS011;37556;44.570;18.612;2024-02-21T15:38:21;1.75;;;0.90;;
51479;SDS011;37556;44.570;18.612;2024-02-21T15:40:47;0.43;;;0.43;;
51479;SDS011;37556;44.570;18.612;2024-02-21T15:43:13;4.07;;;2.08;;
51479;SDS011;37556;44.570;18.612;2024-02-21T15:45:39;5.45;;;0.50;;
51479;SDS011;37556;44.570;18.612;2024-02-21T15:48:08;0.85;;;0.60;;
51479;SDS011;37556;44.570;18.612;2024-02-21T15:50:34;0.10;;;0.10;;
51479;SDS011;37556;44.570;18.612;2024-02-21T15:53:02;0.15;;;0.15;;
51479;SDS011;37556;44.570;18.612;2024-02-21T15:55:28;2.55;;;1.70;;
51479;SDS011;37556;44.570;18.612;2024-02-21T15:57:54;1.08;;;1.08;;
51479;SDS011;37556;44.570;18.612;2024-02-21T16:02:47;2.58;;;1.15;;
51479;SDS011;37556;44.570;18.612;2024-02-21T16:05:13;1.08;;;1.05;;
51479;SDS011;37556;44.570;18.612;2024-02-21T16:07:41;1.30;;;1.20;;
51479;SDS011;37556;44.570;18.612;2024-02-21T16:10:07;1.10;;;1.00;;
51479;SDS011;37556;44.570;18.612;2024-02-21T16:12:34;4.68;;;1.00;;
51479;SDS011;37556;44.570;18.612;2024-02-21T16:17:26;0.40;;;0.40;;
51479;SDS011;37556;44.570;18.612;2024-02-21T16:19:52;1.38;;;1.27;;
51479;SDS011;37556;44.570;18.612;2024-02-21T16:22:18;1.80;;;0.88;;
51479;SDS011;37556;44.570;18.612;2024-02-21T16:24:44;6.32;;;2.70;;
51479;SDS011;37556;44.570;18.612;2024-02-21T16:27:11;2.13;;;2.03;;
51479;SDS011;37556;44.570;18.612;2024-02-21T16:29:37;2.55;;;2.38;;
51479;SDS011;37556;44.570;18.612;2024-02-21T16:32:04;2.10;;;1.92;;
51479;SDS011;37556;44.570;18.612;2024-02-21T16:36:56;2.83;;;1.52;;
51479;SDS011;37556;44.570;18.612;2024-02-21T16:41:48;1.00;;;0.95;;
51479;SDS011;37556;44.570;18.612;2024-02-21T16:44:14;1.92;;;1.45;;
51479;SDS011;37556;44.570;18.612;2024-02-21T16:46:40;13.52;;;1.23;;
51479;SDS011;37556;44.570;18.612;2024-02-21T16:49:06;5.85;;;3.08;;
51479;SDS011;37556;44.570;18.612;2024-02-21T16:51:32;16.88;;;6.68;;
51479;SDS011;37556;44.570;18.612;2024-02-21T16:53:59;3.15;;;2.95;;
51479;SDS011;37556;44.570;18.612;2024-02-21T16:56:28;3.63;;;2.47;;
51479;SDS011;37556;44.570;18.612;2024-02-21T16:58:54;24.33;;;10.23;;
